sensor_id;sensor_type;location;lat;lon;timestamp;P1;durP1;ratioP1;P2;durP2;ratioP2
73170;SDS011;61381;50.118;19.962;2023-12-20T00:00:25;13.02;;;4.95;;
73170;SDS011;61381;50.118;19.962;2023-12-20T00:05:48;12.88;;;5.90;;
73170;SDS011;61381;50.118;19.962;2023-12-20T00:10:49;15.45;;;6.43;;
73170;SDS011;61381;50.118;19.962;2023-12-20T00:15:49;7.43;;;4.07;;
73170;SDS011;61381;50.118;19.962;2023-12-20T00:20:52;12.32;;;4.72;;
73170;SDS011;61381;50.118;19.962;2023-12-20T00:25:53;10.93;;;4.65;;
73170;SDS011;61381;50.118;19.962;2023-12-20T00:30:53;11.77;;;4.82;;
73170;SDS011;61381;50.118;19.962;2023-12-20T00:35:56;11.10;;;4.82;;
73170;SDS011;61381;50.118;19.962;2023-12-20T00:40:56;10.63;;;4.82;;
73170;SDS011;61381;50.118;19.962;2023-12-20T00:45:57;14.75;;;5.00;;
73170;SDS011;61381;50.118;19.962;2023-12-20T00:51:00;9.27;;;3.20;;
73170;SDS011;61381;50.118;19.962;2023-12-20T00:56:00;8.77;;;3.33;;
73170;SDS011;61381;50.118;19.962;2023-12-20T01:01:01;9.50;;;4.18;;
73170;SDS011;61381;50.118;19.962;2023-12-20T01:06:04;9.02;;;3.22;;
73170;SDS011;61381;50.118;19.962;2023-12-20T01:11:05;8.40;;;3.80;;
73170;SDS011;61381;50.118;19.962;2023-12-20T01:16:06;7.72;;;4.00;;
73170;SDS011;61381;50.118;19.962;2023-12-20T01:21:10;8.32;;;3.33;;
73170;SDS011;61381;50.118;19.962;2023-12-20T01:26:11;10.02;;;3.67;;
73170;SDS011;61381;50.118;19.962;2023-12-20T01:31:12;10.57;;;3.38;;
73170;SDS011;61381;50.118;19.962;2023-12-20T01:36:14;9.35;;;3.28;;
73170;SDS011;61381;50.118;19.962;2023-12-20T01:41:15;8.98;;;3.42;;
73170;SDS011;61381;50.118;19.962;2023-12-20T01:46:16;11.23;;;3.50;;
73170;SDS011;61381;50.118;19.962;2023-12-20T01:51:19;6.13;;;2.95;;
73170;SDS011;61381;50.118;19.962;2023-12-20T01:56:20;5.85;;;2.72;;
73170;SDS011;61381;50.118;19.962;2023-12-20T02:01:21;6.63;;;3.10;;
73170;SDS011;61381;50.118;19.962;2023-12-20T02:06:24;6.80;;;2.67;;
73170;SDS011;61381;50.118;19.962;2023-12-20T02:11:29;7.00;;;3.20;;
73170;SDS011;61381;50.118;19.962;2023-12-20T02:16:30;5.88;;;2.72;;
73170;SDS011;61381;50.118;19.962;2023-12-20T02:21:33;4.95;;;2.67;;
73170;SDS011;61381;50.118;19.962;2023-12-20T02:26:34;4.88;;;2.47;;
73170;SDS011;61381;50.118;19.962;2023-12-20T02:31:35;5.78;;;3.05;;
73170;SDS011;61381;50.118;19.962;2023-12-20T02:36:37;8.15;;;3.40;;
73170;SDS011;61381;50.118;19.962;2023-12-20T02:41:38;6.60;;;2.55;;
73170;SDS011;61381;50.118;19.962;2023-12-20T02:46:39;4.90;;;2.50;;
73170;SDS011;61381;50.118;19.962;2023-12-20T02:51:41;3.33;;;2.08;;
73170;SDS011;61381;50.118;19.962;2023-12-20T02:56:42;6.88;;;2.75;;
73170;SDS011;61381;50.118;19.962;2023-12-20T03:01:43;5.78;;;2.40;;
73170;SDS011;61381;50.118;19.962;2023-12-20T03:06:46;6.07;;;2.80;;
73170;SDS011;61381;50.118;19.962;2023-12-20T03:11:47;4.30;;;2.35;;
73170;SDS011;61381;50.118;19.962;2023-12-20T03:16:48;2.97;;;1.90;;
73170;SDS011;61381;50.118;19.962;2023-12-20T03:21:51;4.90;;;2.33;;
73170;SDS011;61381;50.118;19.962;2023-12-20T03:26:52;6.60;;;2.47;;
73170;SDS011;61381;50.118;19.962;2023-12-20T03:36:55;7.00;;;2.55;;
73170;SDS011;61381;50.118;19.962;2023-12-20T03:41:56;4.60;;;2.50;;
73170;SDS011;61381;50.118;19.962;2023-12-20T03:46:57;5.20;;;2.15;;
73170;SDS011;61381;50.118;19.962;2023-12-20T03:51:59;6.18;;;2.53;;
73170;SDS011;61381;50.118;19.962;2023-12-20T03:57:00;4.90;;;2.58;;
73170;SDS011;61381;50.118;19.962;2023-12-20T04:02:00;5.75;;;2.53;;
73170;SDS011;61381;50.118;19.962;2023-12-20T04:07:03;5.45;;;2.60;;
73170;SDS011;61381;50.118;19.962;2023-12-20T04:12:04;4.47;;;2.42;;
73170;SDS011;61381;50.118;19.962;2023-12-20T04:17:05;2.08;;;1.33;;
73170;SDS011;61381;50.118;19.962;2023-12-20T04:22:08;5.32;;;1.30;;
73170;SDS011;61381;50.118;19.962;2023-12-20T04:27:09;3.15;;;1.55;;
73170;SDS011;61381;50.118;19.962;2023-12-20T04:32:09;4.60;;;1.50;;
73170;SDS011;61381;50.118;19.962;2023-12-20T04:37:12;2.55;;;1.38;;
73170;SDS011;61381;50.118;19.962;2023-12-20T04:42:13;2.60;;;1.23;;
73170;SDS011;61381;50.118;19.962;2023-12-20T04:47:14;2.25;;;1.52;;
73170;SDS011;61381;50.118;19.962;2023-12-20T04:52:16;3.03;;;1.55;;
73170;SDS011;61381;50.118;19.962;2023-12-20T04:57:17;2.47;;;1.38;;
73170;SDS011;61381;50.118;19.962;2023-12-20T05:02:18;3.47;;;1.95;;
73170;SDS011;61381;50.118;19.962;2023-12-20T05:07:20;3.22;;;2.00;;
73170;SDS011;61381;50.118;19.962;2023-12-20T05:12:21;3.65;;;1.48;;
73170;SDS011;61381;50.118;19.962;2023-12-20T05:17:22;3.47;;;1.65;;
73170;SDS011;61381;50.118;19.962;2023-12-20T05:22:24;3.85;;;1.35;;
73170;SDS011;61381;50.118;19.962;2023-12-20T05:27:25;4.93;;;2.42;;
73170;SDS011;61381;50.118;19.962;2023-12-20T05:32:26;1.70;;;0.98;;
73170;SDS011;61381;50.118;19.962;2023-12-20T05:42:29;5.38;;;1.85;;
73170;SDS011;61381;50.118;19.962;2023-12-20T05:52:32;3.25;;;2.17;;
73170;SDS011;61381;50.118;19.962;2023-12-20T05:57:33;2.03;;;1.30;;
73170;SDS011;61381;50.118;19.962;2023-12-20T06:02:34;1.55;;;1.20;;
73170;SDS011;61381;50.118;19.962;2023-12-20T06:12:37;5.68;;;2.58;;
73170;SDS011;61381;50.118;19.962;2023-12-20T06:22:39;6.03;;;3.25;;
73170;SDS011;61381;50.118;19.962;2023-12-20T06:27:40;7.22;;;3.50;;
73170;SDS011;61381;50.118;19.962;2023-12-20T06:37:43;3.30;;;2.65;;
73170;SDS011;61381;50.118;19.962;2023-12-20T06:42:44;6.45;;;3.00;;
73170;SDS011;61381;50.118;19.962;2023-12-20T06:52:47;7.03;;;3.47;;
73170;SDS011;61381;50.118;19.962;2023-12-20T06:57:48;6.68;;;3.28;;
73170;SDS011;61381;50.118;19.962;2023-12-20T07:02:49;6.68;;;4.68;;
73170;SDS011;61381;50.118;19.962;2023-12-20T07:12:52;7.57;;;4.03;;
73170;SDS011;61381;50.118;19.962;2023-12-20T07:17:53;7.65;;;4.13;;
73170;SDS011;61381;50.118;19.962;2023-12-20T07:22:55;5.55;;;3.22;;
73170;SDS011;61381;50.118;19.962;2023-12-20T07:27:56;9.00;;;3.92;;
73170;SDS011;61381;50.118;19.962;2023-12-20T07:32:56;6.05;;;3.75;;
73170;SDS011;61381;50.118;19.962;2023-12-20T07:37:59;4.35;;;2.80;;
73170;SDS011;61381;50.118;19.962;2023-12-20T07:42:59;7.78;;;4.88;;
73170;SDS011;61381;50.118;19.962;2023-12-20T07:48:00;7.63;;;4.65;;
73170;SDS011;61381;50.118;19.962;2023-12-20T07:58:03;8.18;;;4.82;;
73170;SDS011;61381;50.118;19.962;2023-12-20T08:03:04;9.55;;;3.55;;
73170;SDS011;61381;50.118;19.962;2023-12-20T08:08:07;6.72;;;4.40;;
73170;SDS011;61381;50.118;19.962;2023-12-20T08:13:08;9.98;;;4.85;;
73170;SDS011;61381;50.118;19.962;2023-12-20T08:18:09;7.20;;;3.90;;
73170;SDS011;61381;50.118;19.962;2023-12-20T08:23:11;9.15;;;3.83;;
73170;SDS011;61381;50.118;19.962;2023-12-20T08:28:12;8.55;;;3.25;;
73170;SDS011;61381;50.118;19.962;2023-12-20T08:33:13;8.38;;;4.70;;
73170;SDS011;61381;50.118;19.962;2023-12-20T08:38:16;7.07;;;3.60;;
73170;SDS011;61381;50.118;19.962;2023-12-20T08:43:16;7.85;;;4.40;;
73170;SDS011;61381;50.118;19.962;2023-12-20T08:48:17;9.60;;;5.55;;
73170;SDS011;61381;50.118;19.962;2023-12-20T08:53:19;12.10;;;5.45;;
73170;SDS011;61381;50.118;19.962;2023-12-20T08:58:20;8.00;;;4.10;;
73170;SDS011;61381;50.118;19.962;2023-12-20T09:03:21;9.40;;;4.78;;
73170;SDS011;61381;50.118;19.962;2023-12-20T09:13:24;10.05;;;4.65;;
73170;SDS011;61381;50.118;19.962;2023-12-20T09:18:25;13.38;;;3.90;;
73170;SDS011;61381;50.118;19.962;2023-12-20T09:28:28;7.15;;;4.35;;
73170;SDS011;61381;50.118;19.962;2023-12-20T09:33:29;10.40;;;5.50;;
73170;SDS011;61381;50.118;19.962;2023-12-20T09:38:31;27.30;;;5.20;;
73170;SDS011;61381;50.118;19.962;2023-12-20T09:43:32;9.98;;;4.78;;
73170;SDS011;61381;50.118;19.962;2023-12-20T09:48:37;10.98;;;5.72;;
73170;SDS011;61381;50.118;19.962;2023-12-20T09:53:41;7.72;;;3.83;;
73170;SDS011;61381;50.118;19.962;2023-12-20T09:58:43;11.63;;;4.13;;
73170;SDS011;61381;50.118;19.962;2023-12-20T10:03:44;6.05;;;3.17;;
73170;SDS011;61381;50.118;19.962;2023-12-20T10:08:46;5.15;;;3.75;;
73170;SDS011;61381;50.118;19.962;2023-12-20T10:13:47;7.10;;;3.70;;
73170;SDS011;61381;50.118;19.962;2023-12-20T10:18:48;6.10;;;3.17;;
73170;SDS011;61381;50.118;19.962;2023-12-20T10:23:51;6.65;;;3.17;;
73170;SDS011;61381;50.118;19.962;2023-12-20T10:28:52;6.82;;;2.78;;
73170;SDS011;61381;50.118;19.962;2023-12-20T10:33:55;7.22;;;4.22;;
73170;SDS011;61381;50.118;19.962;2023-12-20T10:38:58;6.32;;;3.65;;
73170;SDS011;61381;50.118;19.962;2023-12-20T10:44:00;3.60;;;2.55;;
73170;SDS011;61381;50.118;19.962;2023-12-20T10:49:02;7.30;;;2.83;;
73170;SDS011;61381;50.118;19.962;2023-12-20T10:54:05;4.50;;;2.17;;
73170;SDS011;61381;50.118;19.962;2023-12-20T10:59:06;5.68;;;3.55;;
73170;SDS011;61381;50.118;19.962;2023-12-20T11:04:13;5.75;;;2.83;;
73170;SDS011;61381;50.118;19.962;2023-12-20T11:09:22;6.22;;;3.58;;
73170;SDS011;61381;50.118;19.962;2023-12-20T11:14:27;5.13;;;2.72;;
73170;SDS011;61381;50.118;19.962;2023-12-20T11:19:38;4.75;;;2.85;;
73170;SDS011;61381;50.118;19.962;2023-12-20T11:30:09;5.75;;;2.90;;
73170;SDS011;61381;50.118;19.962;2023-12-20T11:35:17;4.75;;;3.05;;
73170;SDS011;61381;50.118;19.962;2023-12-20T11:40:20;6.60;;;3.05;;
73170;SDS011;61381;50.118;19.962;2023-12-20T11:45:24;6.38;;;4.07;;
73170;SDS011;61381;50.118;19.962;2023-12-20T11:50:25;7.28;;;3.33;;
73170;SDS011;61381;50.118;19.962;2023-12-20T11:55:27;9.23;;;3.10;;
73170;SDS011;61381;50.118;19.962;2023-12-20T12:00:28;5.57;;;2.90;;
73170;SDS011;61381;50.118;19.962;2023-12-20T12:05:30;4.72;;;2.88;;
73170;SDS011;61381;50.118;19.962;2023-12-20T12:10:32;4.15;;;2.70;;
73170;SDS011;61381;50.118;19.962;2023-12-20T12:15:33;5.57;;;2.88;;
73170;SDS011;61381;50.118;19.962;2023-12-20T12:20:34;7.07;;;3.00;;
73170;SDS011;61381;50.118;19.962;2023-12-20T12:25:36;4.68;;;2.47;;
73170;SDS011;61381;50.118;19.962;2023-12-20T12:30:37;3.60;;;2.10;;
73170;SDS011;61381;50.118;19.962;2023-12-20T12:35:38;4.22;;;2.40;;
73170;SDS011;61381;50.118;19.962;2023-12-20T12:40:42;5.35;;;2.45;;
73170;SDS011;61381;50.118;19.962;2023-12-20T12:45:44;2.80;;;2.08;;
73170;SDS011;61381;50.118;19.962;2023-12-20T12:50:45;5.43;;;2.97;;
73170;SDS011;61381;50.118;19.962;2023-12-20T12:55:47;4.43;;;3.05;;
73170;SDS011;61381;50.118;19.962;2023-12-20T13:00:48;2.83;;;1.90;;
73170;SDS011;61381;50.118;19.962;2023-12-20T13:05:49;6.93;;;3.28;;
73170;SDS011;61381;50.118;19.962;2023-12-20T13:10:52;4.20;;;2.28;;
73170;SDS011;61381;50.118;19.962;2023-12-20T13:15:52;6.10;;;3.13;;
73170;SDS011;61381;50.118;19.962;2023-12-20T13:20:53;5.82;;;3.25;;
73170;SDS011;61381;50.118;19.962;2023-12-20T13:25:55;4.97;;;2.83;;
73170;SDS011;61381;50.118;19.962;2023-12-20T13:30:56;4.82;;;2.28;;
73170;SDS011;61381;50.118;19.962;2023-12-20T13:35:57;8.48;;;4.28;;
73170;SDS011;61381;50.118;19.962;2023-12-20T13:40:59;4.32;;;2.83;;
73170;SDS011;61381;50.118;19.962;2023-12-20T13:46:00;6.93;;;4.13;;
73170;SDS011;61381;50.118;19.962;2023-12-20T13:51:01;5.00;;;3.10;;
73170;SDS011;61381;50.118;19.962;2023-12-20T13:56:04;7.97;;;4.32;;
73170;SDS011;61381;50.118;19.962;2023-12-20T14:01:06;8.55;;;4.07;;
73170;SDS011;61381;50.118;19.962;2023-12-20T14:06:06;7.25;;;3.55;;
73170;SDS011;61381;50.118;19.962;2023-12-20T14:11:09;8.32;;;4.07;;
73170;SDS011;61381;50.118;19.962;2023-12-20T14:16:10;6.03;;;3.08;;
73170;SDS011;61381;50.118;19.962;2023-12-20T14:21:10;4.60;;;2.08;;
73170;SDS011;61381;50.118;19.962;2023-12-20T14:26:13;5.60;;;3.42;;
73170;SDS011;61381;50.118;19.962;2023-12-20T14:31:14;7.82;;;3.95;;
73170;SDS011;61381;50.118;19.962;2023-12-20T14:36:14;6.90;;;3.67;;
73170;SDS011;61381;50.118;19.962;2023-12-20T14:46:17;6.20;;;3.88;;
73170;SDS011;61381;50.118;19.962;2023-12-20T14:51:18;4.25;;;2.83;;
73170;SDS011;61381;50.118;19.962;2023-12-20T15:01:23;5.97;;;3.78;;
73170;SDS011;61381;50.118;19.962;2023-12-20T15:06:24;6.18;;;3.20;;
73170;SDS011;61381;50.118;19.962;2023-12-20T15:11:26;6.95;;;3.72;;
73170;SDS011;61381;50.118;19.962;2023-12-20T15:16:27;7.57;;;3.45;;
73170;SDS011;61381;50.118;19.962;2023-12-20T15:21:28;5.30;;;3.13;;
73170;SDS011;61381;50.118;19.962;2023-12-20T15:26:30;3.38;;;2.30;;
73170;SDS011;61381;50.118;19.962;2023-12-20T15:31:31;8.80;;;3.25;;
73170;SDS011;61381;50.118;19.962;2023-12-20T15:36:32;7.45;;;4.03;;
73170;SDS011;61381;50.118;19.962;2023-12-20T15:41:34;6.78;;;3.22;;
73170;SDS011;61381;50.118;19.962;2023-12-20T15:46:35;6.80;;;4.05;;
73170;SDS011;61381;50.118;19.962;2023-12-20T15:51:36;8.18;;;3.97;;
73170;SDS011;61381;50.118;19.962;2023-12-20T15:56:38;7.75;;;3.88;;
73170;SDS011;61381;50.118;19.962;2023-12-20T16:01:39;6.60;;;3.75;;
73170;SDS011;61381;50.118;19.962;2023-12-20T16:06:40;9.50;;;4.68;;
73170;SDS011;61381;50.118;19.962;2023-12-20T16:11:42;9.75;;;4.40;;
73170;SDS011;61381;50.118;19.962;2023-12-20T16:16:43;13.55;;;4.47;;
73170;SDS011;61381;50.118;19.962;2023-12-20T16:21:44;9.30;;;4.70;;
73170;SDS011;61381;50.118;19.962;2023-12-20T16:26:47;12.27;;;5.55;;
73170;SDS011;61381;50.118;19.962;2023-12-20T16:31:48;13.35;;;6.75;;
73170;SDS011;61381;50.118;19.962;2023-12-20T16:36:49;10.55;;;5.40;;
73170;SDS011;61381;50.118;19.962;2023-12-20T16:41:52;12.02;;;5.15;;
73170;SDS011;61381;50.118;19.962;2023-12-20T16:46:53;13.80;;;6.75;;
73170;SDS011;61381;50.118;19.962;2023-12-20T16:51:54;12.90;;;5.68;;
73170;SDS011;61381;50.118;19.962;2023-12-20T16:56:56;14.27;;;6.85;;
73170;SDS011;61381;50.118;19.962;2023-12-20T17:01:57;6.75;;;3.53;;
73170;SDS011;61381;50.118;19.962;2023-12-20T17:06:58;10.45;;;5.95;;
73170;SDS011;61381;50.118;19.962;2023-12-20T17:12:00;10.05;;;5.05;;
73170;SDS011;61381;50.118;19.962;2023-12-20T17:17:01;10.27;;;4.95;;
73170;SDS011;61381;50.118;19.962;2023-12-20T17:27:05;9.88;;;5.30;;
73170;SDS011;61381;50.118;19.962;2023-12-20T17:32:06;12.98;;;5.50;;
73170;SDS011;61381;50.118;19.962;2023-12-20T17:37:07;12.85;;;4.75;;
73170;SDS011;61381;50.118;19.962;2023-12-20T17:42:09;8.60;;;4.35;;
73170;SDS011;61381;50.118;19.962;2023-12-20T17:47:10;8.90;;;3.67;;
73170;SDS011;61381;50.118;19.962;2023-12-20T17:52:11;11.52;;;5.53;;
73170;SDS011;61381;50.118;19.962;2023-12-20T17:57:13;10.60;;;5.28;;
73170;SDS011;61381;50.118;19.962;2023-12-20T18:02:14;9.27;;;5.45;;
73170;SDS011;61381;50.118;19.962;2023-12-20T18:07:15;9.15;;;5.03;;
73170;SDS011;61381;50.118;19.962;2023-12-20T18:12:17;9.18;;;5.07;;
73170;SDS011;61381;50.118;19.962;2023-12-20T18:17:18;7.82;;;3.92;;
73170;SDS011;61381;50.118;19.962;2023-12-20T18:22:19;8.38;;;4.20;;
73170;SDS011;61381;50.118;19.962;2023-12-20T18:27:22;7.13;;;4.43;;
73170;SDS011;61381;50.118;19.962;2023-12-20T18:32:23;10.27;;;4.18;;
73170;SDS011;61381;50.118;19.962;2023-12-20T18:37:23;6.53;;;2.70;;
73170;SDS011;61381;50.118;19.962;2023-12-20T18:42:26;11.73;;;4.80;;
73170;SDS011;61381;50.118;19.962;2023-12-20T18:47:26;10.90;;;4.25;;
73170;SDS011;61381;50.118;19.962;2023-12-20T18:52:27;7.15;;;3.60;;
73170;SDS011;61381;50.118;19.962;2023-12-20T18:57:30;9.25;;;4.47;;
73170;SDS011;61381;50.118;19.962;2023-12-20T19:02:31;8.13;;;2.78;;
73170;SDS011;61381;50.118;19.962;2023-12-20T19:07:32;5.38;;;2.50;;
73170;SDS011;61381;50.118;19.962;2023-12-20T19:12:35;7.70;;;2.97;;
73170;SDS011;61381;50.118;19.962;2023-12-20T19:17:35;3.67;;;2.25;;
73170;SDS011;61381;50.118;19.962;2023-12-20T19:22:36;5.20;;;2.90;;
73170;SDS011;61381;50.118;19.962;2023-12-20T19:27:38;5.95;;;2.35;;
73170;SDS011;61381;50.118;19.962;2023-12-20T19:32:39;5.18;;;1.98;;
73170;SDS011;61381;50.118;19.962;2023-12-20T19:37:40;6.68;;;2.42;;
73170;SDS011;61381;50.118;19.962;2023-12-20T19:42:42;4.78;;;2.55;;
73170;SDS011;61381;50.118;19.962;2023-12-20T19:47:47;3.47;;;2.17;;
73170;SDS011;61381;50.118;19.962;2023-12-20T19:52:48;3.55;;;2.00;;
73170;SDS011;61381;50.118;19.962;2023-12-20T19:57:51;4.47;;;2.28;;
73170;SDS011;61381;50.118;19.962;2023-12-20T20:02:52;3.75;;;2.30;;
73170;SDS011;61381;50.118;19.962;2023-12-20T20:07:53;2.45;;;1.58;;
73170;SDS011;61381;50.118;19.962;2023-12-20T20:12:55;3.15;;;1.83;;
73170;SDS011;61381;50.118;19.962;2023-12-20T20:17:56;4.00;;;2.15;;
73170;SDS011;61381;50.118;19.962;2023-12-20T20:22:57;2.33;;;1.55;;
73170;SDS011;61381;50.118;19.962;2023-12-20T20:27:59;4.70;;;2.45;;
73170;SDS011;61381;50.118;19.962;2023-12-20T20:33:00;3.08;;;1.75;;
73170;SDS011;61381;50.118;19.962;2023-12-20T20:38:01;5.72;;;2.63;;
73170;SDS011;61381;50.118;19.962;2023-12-20T20:43:03;5.13;;;1.80;;
73170;SDS011;61381;50.118;19.962;2023-12-20T20:48:05;3.33;;;1.80;;
73170;SDS011;61381;50.118;19.962;2023-12-20T20:53:06;6.32;;;2.67;;
73170;SDS011;61381;50.118;19.962;2023-12-20T20:58:08;3.10;;;1.42;;
73170;SDS011;61381;50.118;19.962;2023-12-20T21:03:09;3.22;;;1.95;;
73170;SDS011;61381;50.118;19.962;2023-12-20T21:08:10;4.50;;;2.05;;
73170;SDS011;61381;50.118;19.962;2023-12-20T21:13:12;5.65;;;1.60;;
73170;SDS011;61381;50.118;19.962;2023-12-20T21:18:13;4.10;;;1.90;;
73170;SDS011;61381;50.118;19.962;2023-12-20T21:23:15;4.18;;;1.08;;
73170;SDS011;61381;50.118;19.962;2023-12-20T21:28:18;3.13;;;1.60;;
73170;SDS011;61381;50.118;19.962;2023-12-20T21:33:18;3.58;;;1.40;;
73170;SDS011;61381;50.118;19.962;2023-12-20T21:38:19;3.30;;;1.40;;
73170;SDS011;61381;50.118;19.962;2023-12-20T21:43:22;3.30;;;1.58;;
73170;SDS011;61381;50.118;19.962;2023-12-20T21:48:23;1.73;;;1.23;;
73170;SDS011;61381;50.118;19.962;2023-12-20T21:53:23;2.83;;;1.25;;
73170;SDS011;61381;50.118;19.962;2023-12-20T21:58:26;2.13;;;1.17;;
73170;SDS011;61381;50.118;19.962;2023-12-20T22:03:26;2.35;;;1.17;;
73170;SDS011;61381;50.118;19.962;2023-12-20T22:08:27;2.72;;;0.90;;
73170;SDS011;61381;50.118;19.962;2023-12-20T22:13:30;2.25;;;1.38;;
73170;SDS011;61381;50.118;19.962;2023-12-20T22:18:30;4.63;;;1.85;;
73170;SDS011;61381;50.118;19.962;2023-12-20T22:23:31;3.65;;;1.95;;
73170;SDS011;61381;50.118;19.962;2023-12-20T22:28:34;2.20;;;1.25;;
73170;SDS011;61381;50.118;19.962;2023-12-20T22:33:34;4.07;;;1.65;;
73170;SDS011;61381;50.118;19.962;2023-12-20T22:38:35;3.03;;;1.40;;
73170;SDS011;61381;50.118;19.962;2023-12-20T22:43:40;5.88;;;1.23;;
73170;SDS011;61381;50.118;19.962;2023-12-20T22:48:41;4.68;;;1.48;;
73170;SDS011;61381;50.118;19.962;2023-12-20T22:53:41;3.88;;;1.55;;
73170;SDS011;61381;50.118;19.962;2023-12-20T22:58:44;4.38;;;2.03;;
73170;SDS011;61381;50.118;19.962;2023-12-20T23:03:45;3.05;;;1.23;;
73170;SDS011;61381;50.118;19.962;2023-12-20T23:08:46;2.97;;;1.00;;
73170;SDS011;61381;50.118;19.962;2023-12-20T23:13:49;3.08;;;2.05;;
73170;SDS011;61381;50.118;19.962;2023-12-20T23:18:49;3.25;;;2.03;;
73170;SDS011;61381;50.118;19.962;2023-12-20T23:23:50;2.90;;;1.33;;
73170;SDS011;61381;50.118;19.962;2023-12-20T23:28:52;4.05;;;1.60;;
73170;SDS011;61381;50.118;19.962;2023-12-20T23:33:53;3.85;;;1.83;;
73170;SDS011;61381;50.118;19.962;2023-12-20T23:38:54;2.70;;;1.52;;
73170;SDS011;61381;50.118;19.962;2023-12-20T23:43:56;2.45;;;1.33;;
73170;SDS011;61381;50.118;19.962;2023-12-20T23:48:57;2.00;;;1.00;;
73170;SDS011;61381;50.118;19.962;2023-12-20T23:53:58;2.75;;;1.45;;
73170;SDS011;61381;50.118;19.962;2023-12-20T23:59:00;3.63;;;1.42;;
